createdAt,value
2023-05-12T00:01:44.045Z,96702.84
2023-05-12T00:04:10.585Z,96702.56
2023-05-12T00:06:37.184Z,96693.56
2023-05-12T00:09:03.962Z,96720.38
2023-05-12T00:11:30.416Z,96706.06
2023-05-12T00:13:56.988Z,96695.88
2023-05-12T00:16:23.452Z,96693.41
2023-05-12T00:18:49.920Z,96685.91
2023-05-12T00:21:16.529Z,96673.75
2023-05-12T00:23:43.079Z,96704.84
2023-05-12T00:26:09.589Z,96686.88
2023-05-12T00:28:35.961Z,96687.38
2023-05-12T00:31:02.694Z,96703.22
2023-05-12T00:33:29.368Z,96685.56
2023-05-12T00:35:55.881Z,96683.91
2023-05-12T00:38:22.280Z,96689.75
2023-05-12T00:40:48.681Z,96689.75
2023-05-12T00:43:15.158Z,96693.56
2023-05-12T00:45:41.781Z,96698.63
2023-05-12T00:48:08.220Z,96678.78
2023-05-12T00:50:34.839Z,96691.66
2023-05-12T00:53:01.381Z,96672.03
2023-05-12T00:55:29.138Z,96695.66
2023-05-12T00:57:55.794Z,96681.09
2023-05-12T01:00:22.568Z,96701.06
2023-05-12T01:02:49.222Z,96663.16
2023-05-12T01:05:15.900Z,96699.47
2023-05-12T01:07:42.433Z,96684.97
2023-05-12T01:10:16.947Z,96673.13
2023-05-12T01:12:43.429Z,96680.63
2023-05-12T01:15:10.180Z,96686.22
2023-05-12T01:17:36.657Z,96681.09
2023-05-12T01:20:03.400Z,96679.50
2023-05-12T01:22:29.862Z,96688.97
2023-05-12T01:24:59.906Z,96697.56
2023-05-12T01:27:26.560Z,96686.28
2023-05-12T01:29:53.216Z,96686.50
2023-05-12T01:32:19.797Z,96682.22
2023-05-12T01:34:46.222Z,96681.09
2023-05-12T01:37:12.990Z,96690.06
2023-05-12T01:39:39.474Z,96679.78
2023-05-12T01:42:06.191Z,96665.91
2023-05-12T01:44:32.647Z,96669.34
2023-05-12T01:46:59.316Z,96688.69
2023-05-12T01:49:25.833Z,96662.84
2023-05-12T01:51:52.276Z,96690.13
2023-05-12T01:54:18.756Z,96680.25
2023-05-12T01:56:45.202Z,96682.38
2023-05-12T01:59:11.708Z,96680.19
2023-05-12T02:01:38.283Z,96684.75
2023-05-12T02:04:04.926Z,96667.75
2023-05-12T02:06:31.524Z,96679.69
2023-05-12T02:08:57.987Z,96668.69
2023-05-12T02:11:24.476Z,96663.09
2023-05-12T02:13:53.073Z,96679.09
2023-05-12T02:16:19.533Z,96688.28
2023-05-12T02:18:45.948Z,96691.44
2023-05-12T02:21:12.442Z,96679.38
2023-05-12T02:23:39.006Z,96702.81
2023-05-12T02:26:05.492Z,96676.69
2023-05-12T02:28:31.930Z,96694.72
2023-05-12T02:30:58.355Z,96682.88
2023-05-12T02:33:24.847Z,96692.13
2023-05-12T02:35:51.357Z,96673.19
2023-05-12T02:38:17.932Z,96690.56
2023-05-12T02:40:44.401Z,96672.13
2023-05-12T02:43:10.938Z,96675.81
2023-05-12T02:45:37.615Z,96680.69
2023-05-12T02:48:04.317Z,96676.97
2023-05-12T02:50:30.902Z,96663.53
2023-05-12T02:52:57.427Z,96645.41
2023-05-12T02:55:23.855Z,96677.50
2023-05-12T02:57:50.296Z,96653.28
2023-05-12T03:00:16.836Z,96672.59
2023-05-12T03:02:43.441Z,96652.97
2023-05-12T03:05:10.070Z,96676.41
2023-05-12T03:07:36.469Z,96661.84
2023-05-12T03:10:02.948Z,96668.31
2023-05-12T03:12:29.484Z,96651.44
2023-05-12T03:14:55.962Z,96647.38
2023-05-12T03:17:22.475Z,96671.59
2023-05-12T03:19:48.919Z,96667.22
2023-05-12T03:22:15.457Z,96667.94
2023-05-12T03:24:42.015Z,96663.94
2023-05-12T03:27:08.483Z,96659.34
2023-05-12T03:29:34.928Z,96671.28
2023-05-12T03:32:01.566Z,96670.22
2023-05-12T03:34:28.017Z,96664.03
2023-05-12T03:36:54.473Z,96681.47
2023-05-12T03:39:20.914Z,96671.13
2023-05-12T03:41:47.586Z,96676.50
2023-05-12T03:44:14.000Z,96667.16
2023-05-12T03:46:40.531Z,96670.34
2023-05-12T03:49:06.988Z,96661.34
2023-05-12T03:51:33.417Z,96669.91
2023-05-12T03:53:59.811Z,96655.75
2023-05-12T03:56:26.283Z,96660.84
2023-05-12T03:58:52.726Z,96689.66
2023-05-12T04:01:19.097Z,96659.47
2023-05-12T04:03:45.751Z,96689.28
2023-05-12T04:06:12.278Z,96668.59
2023-05-12T04:08:41.685Z,96657.56
2023-05-12T04:11:08.433Z,96653.38
2023-05-12T04:13:34.923Z,96672.53
2023-05-12T04:16:01.420Z,96670.06
2023-05-12T04:18:29.004Z,96674.63
2023-05-12T04:20:55.579Z,96677.09
2023-05-12T04:23:23.030Z,96670.91
2023-05-12T04:25:49.623Z,96676.50
2023-05-12T04:28:16.172Z,96685.47
2023-05-12T04:30:42.688Z,96674.00
2023-05-12T04:33:09.285Z,96683.31
2023-05-12T04:35:35.941Z,96670.91
2023-05-12T04:38:02.372Z,96666.25
2023-05-12T04:40:28.908Z,96664.16
2023-05-12T04:42:55.297Z,96687.88
2023-05-12T04:45:22.103Z,96706.34
2023-05-12T04:47:48.735Z,96704.38
2023-05-12T04:50:15.199Z,96690.19
2023-05-12T04:52:41.833Z,96697.97
2023-05-12T04:55:08.511Z,96695.88
2023-05-12T04:57:35.015Z,96693.41
2023-05-12T05:00:01.548Z,96697.59
2023-05-12T05:02:28.042Z,96694.72
2023-05-12T05:04:54.639Z,96702.38
2023-05-12T05:07:21.144Z,96714.25
2023-05-12T05:09:47.523Z,96696.38
2023-05-12T05:12:13.977Z,96702.06
2023-05-12T05:14:40.496Z,96702.63
2023-05-12T05:17:06.910Z,96703.06
2023-05-12T05:19:46.158Z,96681.84
2023-05-12T05:22:19.978Z,96697.31
2023-05-12T05:24:46.580Z,96689.44
2023-05-12T05:27:13.072Z,96716.88
2023-05-12T05:29:39.648Z,96704.09
2023-05-12T05:32:06.216Z,96702.41
2023-05-12T05:34:32.937Z,96704.91
2023-05-12T05:36:59.532Z,96725.38
2023-05-12T05:39:25.954Z,96723.69
2023-05-12T05:41:52.309Z,96733.34
2023-05-12T05:44:18.812Z,96731.69
2023-05-12T05:46:45.214Z,96729.22
2023-05-12T05:49:11.646Z,96719.75
2023-05-12T05:51:38.157Z,96732.41
2023-05-12T05:54:04.810Z,96737.50
2023-05-12T05:56:31.244Z,96727.31
2023-05-12T05:58:57.728Z,96746.09
2023-05-12T06:01:24.126Z,96732.84
2023-05-12T06:03:50.547Z,96730.94
2023-05-12T06:06:17.072Z,96745.41
2023-05-12T06:08:43.653Z,96710.09
2023-05-12T06:11:10.347Z,96737.16
2023-05-12T06:13:36.825Z,96743.66
2023-05-12T06:16:03.303Z,96737.56
2023-05-12T06:18:29.724Z,96749.81
2023-05-12T06:20:56.238Z,96756.53
2023-05-12T06:23:22.654Z,96755.50
2023-05-12T06:25:49.278Z,96750.31
2023-05-12T06:28:15.780Z,96734.75
2023-05-12T06:30:42.265Z,96745.75
2023-05-12T06:33:08.883Z,96772.28
2023-05-12T06:35:35.497Z,96768.31
2023-05-12T06:38:01.906Z,96760.22
2023-05-12T06:40:28.331Z,96750.22
2023-05-12T06:42:54.833Z,96743.16
2023-05-12T06:45:21.677Z,96745.16
2023-05-12T06:47:48.334Z,96730.19
2023-05-12T06:50:14.789Z,96769.13
2023-05-12T06:52:41.190Z,96767.13
2023-05-12T06:55:07.778Z,96748.56
2023-05-12T06:57:34.266Z,96764.94
2023-05-12T07:00:00.658Z,96755.34
2023-05-12T07:02:27.343Z,96779.13
2023-05-12T07:04:53.878Z,96762.13
2023-05-12T07:07:20.336Z,96776.13
2023-05-12T07:09:46.786Z,96755.13
2023-05-12T07:12:13.321Z,96771.00
2023-05-12T07:14:39.763Z,96764.22
2023-05-12T07:17:06.232Z,96760.94
2023-05-12T07:19:32.748Z,96765.75
2023-05-12T07:21:59.397Z,96776.72
2023-05-12T07:24:25.858Z,96770.94
2023-05-12T07:26:52.337Z,96778.00
2023-05-12T07:29:18.749Z,96768.91
2023-05-12T07:31:45.179Z,96771.34
2023-05-12T07:34:11.857Z,96772.59
2023-05-12T07:36:38.341Z,96800.41
2023-05-12T07:39:04.848Z,96763.53
2023-05-12T07:41:32.538Z,96763.91
2023-05-12T07:44:01.147Z,96769.44
2023-05-12T07:46:27.660Z,96766.13
2023-05-12T07:48:54.161Z,96767.91
2023-05-12T07:51:20.567Z,96761.53
2023-05-12T07:53:46.989Z,96786.09
2023-05-12T07:56:13.456Z,96770.22
2023-05-12T07:58:39.883Z,96791.69
2023-05-12T08:01:06.300Z,96783.69
2023-05-12T08:03:33.251Z,96782.19
2023-05-12T08:05:59.949Z,96773.91
2023-05-12T08:08:26.414Z,96783.91
2023-05-12T08:10:52.882Z,96797.09
2023-05-12T08:13:19.531Z,96779.63
2023-05-12T08:15:45.899Z,96779.31
2023-05-12T08:18:12.433Z,96784.44
2023-05-12T08:20:38.986Z,96779.72
2023-05-12T08:23:05.471Z,96787.53
2023-05-12T08:25:31.989Z,96788.81
2023-05-12T08:27:58.421Z,96800.28
2023-05-12T08:30:24.875Z,96785.50
2023-05-12T08:32:51.523Z,96808.38
2023-05-12T08:35:18.070Z,96815.56
2023-05-12T08:37:44.597Z,96802.19
2023-05-12T08:40:31.355Z,96804.88
2023-05-12T08:43:13.399Z,96817.09
2023-05-12T08:45:40.177Z,96800.09
2023-05-12T08:48:08.842Z,96804.88
2023-05-12T08:50:38.563Z,96809.34
2023-05-12T08:53:05.195Z,96808.16
2023-05-12T08:55:33.801Z,96812.84
2023-05-12T08:58:00.942Z,96796.31
2023-05-12T09:00:27.419Z,96805.34
2023-05-12T09:02:54.890Z,96805.34
2023-05-12T09:05:22.187Z,96831.34
2023-05-12T09:07:49.179Z,96819.66
2023-05-12T09:10:26.356Z,96834.25
2023-05-12T09:13:02.717Z,96824.72
2023-05-12T09:15:32.199Z,96816.34
2023-05-12T09:17:58.656Z,96843.06
2023-05-12T09:20:31.973Z,96831.75
2023-05-12T09:22:58.704Z,96824.44
2023-05-12T09:25:25.137Z,96802.09
2023-05-12T09:27:54.254Z,96825.38
2023-05-12T09:30:28.957Z,96826.72
2023-05-12T09:33:04.915Z,96826.81
2023-05-12T09:35:31.286Z,96808.41
2023-05-12T09:37:57.878Z,96827.25
2023-05-12T09:40:24.353Z,96822.94
2023-05-12T09:42:50.741Z,96827.53
2023-05-12T09:45:17.130Z,96840.44
2023-05-12T09:47:43.639Z,96814.03
2023-05-12T09:50:10.350Z,96833.47
2023-05-12T09:52:37.979Z,96832.88
2023-05-12T09:55:08.149Z,96820.47
2023-05-12T09:57:35.872Z,96830.25
2023-05-12T10:00:03.944Z,96812.81
2023-05-12T10:02:31.554Z,96834.31
2023-05-12T10:04:58.304Z,96834.63
2023-05-12T10:07:24.654Z,96820.03
2023-05-12T10:09:51.162Z,96830.16
2023-05-12T10:12:17.635Z,96807.72
2023-05-12T10:14:44.105Z,96821.19
2023-05-12T10:17:10.635Z,96811.75
2023-05-12T10:19:37.072Z,96845.78
2023-05-12T10:22:03.428Z,96834.31
2023-05-12T10:24:29.851Z,96826.03
2023-05-12T10:26:56.265Z,96827.94
2023-05-12T10:29:23.162Z,96835.94
2023-05-12T10:31:49.633Z,96830.44
2023-05-12T10:34:16.739Z,96799.69
2023-05-12T10:36:43.807Z,96817.53
2023-05-12T10:39:12.789Z,96835.56
2023-05-12T10:41:39.364Z,96829.78
2023-05-12T10:44:05.845Z,96836.59
2023-05-12T10:46:32.477Z,96813.94
2023-05-12T10:49:02.668Z,96850.22
2023-05-12T10:51:29.792Z,96862.03
2023-05-12T10:53:57.092Z,96862.41
2023-05-12T10:56:24.875Z,96873.28
2023-05-12T10:59:07.892Z,96842.59
2023-05-12T11:01:35.777Z,96843.59
2023-05-12T11:04:13.159Z,96862.72
2023-05-12T11:06:40.957Z,96850.22
2023-05-12T11:09:09.031Z,96861.31
2023-05-12T11:11:36.310Z,96834.41
2023-05-12T11:14:02.910Z,96873.53
2023-05-12T11:16:29.401Z,96837.59
2023-05-12T11:19:05.411Z,96811.06
2023-05-12T11:21:32.194Z,96825.22
2023-05-12T11:23:59.025Z,96820.16
2023-05-12T11:26:25.817Z,96881.88
2023-05-12T11:28:52.243Z,96832.66
2023-05-12T11:31:19.095Z,96816.19
2023-05-12T11:33:45.625Z,96810.56
2023-05-12T11:36:12.076Z,96859.31
2023-05-12T11:38:38.474Z,96835.78
2023-05-12T11:41:04.979Z,96828.69
2023-05-12T11:43:31.383Z,96829.38
2023-05-12T11:45:57.901Z,96823.34
2023-05-12T11:48:32.057Z,96808.53
2023-05-12T11:50:58.470Z,96845.22
2023-05-12T11:53:25.561Z,96864.41
2023-05-12T11:55:56.374Z,96888.97
2023-05-12T11:58:23.518Z,96848.53
2023-05-12T12:00:50.038Z,96862.56
2023-05-12T12:03:16.943Z,96866.00
2023-05-12T12:05:44.146Z,96879.56
2023-05-12T12:08:14.891Z,96848.47
2023-05-12T12:10:44.605Z,96876.97
2023-05-12T12:13:11.228Z,96874.59
2023-05-12T12:15:37.735Z,96873.50
2023-05-12T12:18:04.390Z,96877.59
2023-05-12T12:20:30.872Z,96870.75
2023-05-12T12:22:57.257Z,96884.81
2023-05-12T12:25:23.756Z,96862.09
2023-05-12T12:27:50.265Z,96882.44
2023-05-12T12:30:16.714Z,96870.72
2023-05-12T12:32:43.380Z,96869.50
2023-05-12T12:35:09.879Z,96874.97
2023-05-12T12:37:36.256Z,96880.34
2023-05-12T12:40:02.901Z,96886.78
2023-05-12T12:42:29.482Z,96863.19
2023-05-12T12:44:55.889Z,96892.38
2023-05-12T12:47:22.379Z,96889.28
2023-05-12T12:49:48.827Z,96886.75
2023-05-12T12:52:15.299Z,96887.53
2023-05-12T12:54:41.998Z,96901.50
2023-05-12T12:57:08.387Z,96850.81
2023-05-12T12:59:34.812Z,96894.66
2023-05-12T13:02:01.432Z,96894.69
2023-05-12T13:04:27.974Z,96909.38
2023-05-12T13:06:54.365Z,96895.41
2023-05-12T13:09:20.922Z,96884.13
2023-05-12T13:11:47.568Z,96888.84
2023-05-12T13:14:13.967Z,96869.69
2023-05-12T13:16:40.456Z,96888.34
2023-05-12T13:19:07.118Z,96886.22
2023-05-12T13:21:33.756Z,96844.63
2023-05-12T13:24:00.257Z,96895.66
2023-05-12T13:26:26.708Z,96887.19
2023-05-12T13:28:53.155Z,96878.16
2023-05-12T13:31:19.692Z,96898.13
2023-05-12T13:33:46.122Z,96876.19
2023-05-12T13:36:12.668Z,96863.69
2023-05-12T13:38:39.621Z,96872.84
2023-05-12T13:41:06.243Z,96882.88
2023-05-12T13:43:32.699Z,96893.06
2023-05-12T13:45:59.262Z,96894.38
2023-05-12T13:48:25.785Z,96891.03
2023-05-12T13:50:52.255Z,96893.25
2023-05-12T13:53:18.716Z,96854.75
2023-05-12T13:55:45.143Z,96876.75
2023-05-12T13:58:11.587Z,96885.31
2023-05-12T14:00:38.048Z,96895.38
2023-05-12T14:03:04.625Z,96899.28
2023-05-12T14:05:31.269Z,96885.00
2023-05-12T14:07:57.906Z,96907.25
2023-05-12T14:10:24.370Z,96881.47
2023-05-12T14:12:50.931Z,96900.34
2023-05-12T14:17:47.336Z,96894.63
2023-05-12T14:20:13.775Z,96866.97
2023-05-12T14:22:40.352Z,96872.94
2023-05-12T14:25:06.904Z,96849.94
2023-05-12T14:27:33.268Z,96910.28
2023-05-12T14:30:00.037Z,96895.13
2023-05-12T14:32:26.603Z,96883.63
2023-05-12T14:34:53.009Z,96900.81
2023-05-12T14:37:19.491Z,96895.50
2023-05-12T14:39:45.955Z,96906.22
2023-05-12T14:42:12.466Z,96898.66
2023-05-12T14:44:38.889Z,96903.78
2023-05-12T14:47:07.454Z,96892.59
2023-05-12T14:49:35.266Z,96917.91
2023-05-12T14:52:01.722Z,96889.75
2023-05-12T14:54:28.170Z,96913.38
2023-05-12T14:56:54.584Z,96900.50
2023-05-12T14:59:21.070Z,96892.41
2023-05-12T15:01:47.650Z,96914.03
2023-05-12T15:04:14.307Z,96932.13
2023-05-12T15:06:40.795Z,96914.97
2023-05-12T15:09:07.266Z,96918.84
2023-05-12T15:11:33.843Z,96895.25
2023-05-12T15:14:00.404Z,96926.31
2023-05-12T15:16:26.912Z,96912.22
2023-05-12T15:18:53.428Z,96883.16
2023-05-12T15:21:20.139Z,96928.28
2023-05-12T15:23:46.577Z,96914.16
2023-05-12T15:26:26.889Z,96930.34
2023-05-12T15:28:59.309Z,96895.81
2023-05-12T15:31:25.856Z,96900.88
2023-05-12T15:33:52.267Z,96902.63
2023-05-12T15:36:18.765Z,96939.81
2023-05-12T15:38:45.174Z,96901.50
2023-05-12T15:41:11.629Z,96911.63
2023-05-12T15:43:38.245Z,96895.53
2023-05-12T15:46:05.021Z,96902.03
2023-05-12T15:48:31.469Z,96891.13
2023-05-12T15:50:57.968Z,96875.50
2023-05-12T15:53:24.425Z,96868.34
2023-05-12T15:55:58.633Z,96894.78
2023-05-12T15:58:25.054Z,96878.03
2023-05-12T16:00:53.196Z,96915.13
2023-05-12T16:03:19.855Z,96921.22
2023-05-12T16:05:46.325Z,96913.47
2023-05-12T16:08:12.849Z,96886.00
2023-05-12T16:10:39.422Z,96906.50
2023-05-12T16:13:05.900Z,96912.63
2023-05-12T16:15:32.358Z,96902.97
2023-05-12T16:17:58.839Z,96880.78
2023-05-12T16:20:25.320Z,96888.81
2023-05-12T16:22:51.957Z,96871.00
2023-05-12T16:25:18.588Z,96917.47
2023-05-12T16:27:45.360Z,96896.78
2023-05-12T16:30:11.928Z,96904.81
2023-05-12T16:32:38.676Z,96895.59
2023-05-12T16:35:05.689Z,96880.06
2023-05-12T16:37:32.166Z,96879.00
2023-05-12T16:39:58.779Z,96885.03
2023-05-12T16:42:25.298Z,96906.06
2023-05-12T16:44:54.712Z,96914.91
2023-05-12T16:47:21.251Z,96869.47
2023-05-12T16:49:47.783Z,96896.78
2023-05-12T16:52:14.256Z,96909.50
2023-05-12T16:54:40.833Z,96910.56
2023-05-12T16:57:07.275Z,96929.22
2023-05-12T16:59:33.748Z,96897.22
2023-05-12T17:02:00.538Z,96889.44
2023-05-12T17:04:27.074Z,96898.78
2023-05-12T17:06:53.516Z,96876.66
2023-05-12T17:09:20.236Z,96885.25
2023-05-12T17:11:46.631Z,96909.25
2023-05-12T17:14:13.041Z,96886.19
2023-05-12T17:16:39.714Z,96879.31
2023-05-12T17:21:35.616Z,96893.75
2023-05-12T17:24:02.128Z,96892.53
2023-05-12T17:26:28.526Z,96864.22
2023-05-12T17:28:55.132Z,96901.88
2023-05-12T17:31:21.765Z,96880.13
2023-05-12T17:33:48.287Z,96911.91
2023-05-12T17:36:14.794Z,96908.88
2023-05-12T17:38:41.336Z,96918.72
2023-05-12T17:41:07.974Z,96907.56
2023-05-12T17:43:34.393Z,96894.56
2023-05-12T17:46:00.827Z,96923.38
2023-05-12T17:48:27.268Z,96907.47
2023-05-12T17:50:53.749Z,96928.28
2023-05-12T17:53:20.251Z,96919.53
2023-05-12T17:55:46.694Z,96913.13
2023-05-12T17:58:13.148Z,96923.22
2023-05-12T18:00:39.618Z,96871.91
2023-05-12T18:03:06.184Z,96919.13
2023-05-12T18:05:33.845Z,96923.44
2023-05-12T18:08:01.411Z,96918.13
2023-05-12T18:10:27.826Z,96934.81
2023-05-12T18:12:55.536Z,96925.84
2023-05-12T18:15:22.436Z,96921.72
2023-05-12T18:17:48.986Z,96937.03
2023-05-12T18:20:15.499Z,96929.66
2023-05-12T18:22:42.096Z,96945.34
2023-05-12T18:25:08.781Z,96941.44
2023-05-12T18:27:35.299Z,96926.03
2023-05-12T18:30:01.863Z,96944.75
2023-05-12T18:32:28.583Z,96955.03
2023-05-12T18:34:55.111Z,96953.22
2023-05-12T18:37:21.930Z,96953.75
2023-05-12T18:39:48.302Z,96941.44
2023-05-12T18:42:14.827Z,96956.94
2023-05-12T18:44:41.393Z,96955.25
2023-05-12T18:47:08.109Z,96935.31
2023-05-12T18:49:34.865Z,96948.53
2023-05-12T18:52:01.348Z,96952.41
2023-05-12T18:54:27.778Z,96960.22
2023-05-12T18:56:54.224Z,96962.22
2023-05-12T18:59:20.735Z,96986.50
2023-05-12T19:01:47.271Z,96984.97
2023-05-12T19:04:14.129Z,96980.53
2023-05-12T19:06:40.598Z,96976.56
2023-05-12T19:09:07.055Z,96987.03
2023-05-12T19:11:33.498Z,96956.16
2023-05-12T19:13:59.923Z,96956.69
2023-05-12T19:16:26.348Z,96982.91
2023-05-12T19:18:52.870Z,96962.50
2023-05-12T19:21:19.547Z,96984.31
2023-05-12T19:23:45.964Z,96977.31
2023-05-12T19:26:12.481Z,96972.44
2023-05-12T19:28:38.946Z,96983.28
2023-05-12T19:31:05.400Z,97006.69
2023-05-12T19:33:31.877Z,96977.53
2023-05-12T19:35:58.432Z,96981.53
2023-05-12T19:38:25.027Z,96978.13
2023-05-12T19:40:51.521Z,96989.56
2023-05-12T19:43:18.089Z,96983.44
2023-05-12T19:45:44.575Z,97013.47
2023-05-12T19:48:11.407Z,96983.66
2023-05-12T19:50:37.951Z,96993.88
2023-05-12T19:53:04.430Z,96975.28
2023-05-12T19:55:30.898Z,96995.03
2023-05-12T19:57:57.374Z,96991.19
2023-05-12T20:00:23.809Z,97004.75
2023-05-12T20:02:50.450Z,96987.78
2023-05-12T20:05:17.117Z,97006.28
2023-05-12T20:07:43.531Z,96969.88
2023-05-12T20:10:10.042Z,96985.44
2023-05-12T20:12:36.685Z,96979.47
2023-05-12T20:15:03.328Z,96979.19
2023-05-12T20:17:29.912Z,96973.22
2023-05-12T20:19:56.462Z,96994.28
2023-05-12T20:22:22.921Z,97002.38
2023-05-12T20:24:49.462Z,96968.47
2023-05-12T20:27:15.980Z,96980.94
2023-05-12T20:29:42.477Z,96985.53
2023-05-12T20:32:08.965Z,96954.88
2023-05-12T20:34:35.453Z,96975.81
2023-05-12T20:37:01.873Z,96982.75
2023-05-12T20:39:28.339Z,96972.25
2023-05-12T20:41:54.823Z,96969.44
2023-05-12T20:44:21.230Z,96976.66
2023-05-12T20:46:47.757Z,96966.69
2023-05-12T20:49:14.230Z,96956.41
2023-05-12T20:51:40.600Z,96968.81
2023-05-12T20:54:06.993Z,96969.66
2023-05-12T20:56:33.526Z,96945.84
2023-05-12T20:58:59.928Z,96952.09
2023-05-12T21:01:26.484Z,96986.00
2023-05-12T21:03:53.053Z,96972.19
2023-05-12T21:06:19.524Z,96974.81
2023-05-12T21:08:45.877Z,96963.56
2023-05-12T21:11:12.937Z,96966.81
2023-05-12T21:13:39.403Z,96983.78
2023-05-12T21:16:05.888Z,96970.16
2023-05-12T21:18:32.524Z,96975.41
2023-05-12T21:20:59.047Z,96982.31
2023-05-12T21:23:25.515Z,96987.69
2023-05-12T21:25:54.931Z,96980.97
2023-05-12T21:28:21.464Z,96985.69
2023-05-12T21:30:47.888Z,96979.94
2023-05-12T21:33:14.329Z,96987.13
2023-05-12T21:35:40.705Z,96975.56
2023-05-12T21:38:07.107Z,96985.69
2023-05-12T21:40:33.682Z,96989.63
2023-05-12T21:43:00.227Z,96986.66
2023-05-12T21:45:26.655Z,96991.41
2023-05-12T21:47:53.239Z,96994.50
2023-05-12T21:50:20.121Z,96996.22
2023-05-12T21:52:47.059Z,96983.84
2023-05-12T21:55:13.687Z,96980.63
2023-05-12T21:57:40.302Z,96993.97
2023-05-12T22:00:07.024Z,96986.88
2023-05-12T22:02:33.775Z,96969.94
2023-05-12T22:05:00.331Z,96961.19
2023-05-12T22:07:26.860Z,96982.50
2023-05-12T22:09:53.370Z,97011.13
2023-05-12T22:12:19.747Z,96974.53
2023-05-12T22:14:46.176Z,96978.53
2023-05-12T22:17:12.752Z,96953.69
2023-05-12T22:19:39.264Z,96976.34
2023-05-12T22:22:05.937Z,96983.28
2023-05-12T22:24:32.499Z,96995.16
2023-05-12T22:26:58.982Z,96966.59
2023-05-12T22:29:25.500Z,96962.28
2023-05-12T22:31:51.938Z,96984.84
2023-05-12T22:34:18.348Z,96977.50
2023-05-12T22:36:45.109Z,96969.72
2023-05-12T22:39:11.610Z,96981.03
2023-05-12T22:41:38.024Z,96961.63
2023-05-12T22:44:04.804Z,97004.81
2023-05-12T22:46:31.414Z,96979.25
2023-05-12T22:48:57.918Z,96989.22
2023-05-12T22:51:24.358Z,96972.47
2023-05-12T22:53:50.859Z,96951.28
2023-05-12T22:56:17.244Z,96970.06
2023-05-12T22:58:43.715Z,96975.16
2023-05-12T23:01:10.370Z,97009.09
2023-05-12T23:03:36.999Z,96970.63
2023-05-12T23:06:03.442Z,96961.19
2023-05-12T23:08:30.016Z,96945.56
2023-05-12T23:10:56.535Z,96972.97
2023-05-12T23:13:22.987Z,96936.72
2023-05-12T23:15:49.501Z,96956.94
2023-05-12T23:18:15.882Z,96961.97
2023-05-12T23:20:42.282Z,96963.56
2023-05-12T23:23:08.785Z,96972.94
2023-05-12T23:25:35.201Z,96951.84
2023-05-12T23:28:01.583Z,96961.47
2023-05-12T23:30:28.038Z,96962.28
2023-05-12T23:32:54.580Z,96953.41
2023-05-12T23:35:21.116Z,96931.66
2023-05-12T23:37:47.677Z,96939.50
2023-05-12T23:40:14.062Z,96918.75
2023-05-12T23:42:40.495Z,96950.47
2023-05-12T23:45:07.176Z,96938.09
2023-05-12T23:47:33.652Z,96937.41
2023-05-12T23:50:00.228Z,96939.25
2023-05-12T23:52:26.689Z,96942.50
2023-05-12T23:54:53.100Z,96946.34
2023-05-12T23:57:19.614Z,96924.19
2023-05-12T23:59:46.196Z,96935.47
